<?xml version='1.0' encoding='UTF-8'?><gpx version="1.1" creator="JPX - https://github.com/jenetics/jpx" xmlns="http://www.topografix.com/GPX/1/1"><trk><trkseg><trkpt lat="47.16411471387067" lon="3.1582543989539076"><ele>325.0</ele><time>2026-04-19T13:53:12.014Z</time></trkpt><trkpt lat="47.164184616685354" lon="3.1583406992055676"><ele>325.0</ele><time>2026-04-19T13:53:26Z</time></trkpt><trkpt lat="47.164123768153864" lon="3.1582833076244725"><ele>325.0</ele><time>2026-04-19T13:55:12.999Z</time></trkpt><trkpt lat="47.1640574868011" lon="3.158207560591163"><ele>325.0</ele><time>2026-04-19T13:56:26.999Z</time></trkpt><trkpt lat="47.16401235745989" lon="3.158141142919203"><ele>325.0</ele><time>2026-04-19T13:56:28.999Z</time></trkpt><trkpt lat="47.16394700825622" lon="3.1580671886448366"><ele>325.0</ele><time>2026-04-19T13:56:30.999Z</time></trkpt><trkpt lat="47.16385574329112" lon="3.158006080642701"><ele>325.3333333333333</ele><time>2026-04-19T13:56:32.999Z</time></trkpt><trkpt lat="47.16378200764926" lon="3.157945205799689"><ele>325.66666666666663</ele><time>2026-04-19T13:56:34.999Z</time></trkpt><trkpt lat="47.16371792808482" lon="3.1578985205268695"><ele>326.0</ele><time>2026-04-19T13:56:36.999Z</time></trkpt><trkpt lat="47.16363744688456" lon="3.1578447441006565"><ele>326.3333333333333</ele><time>2026-04-19T13:56:38.999Z</time></trkpt><trkpt lat="47.163554666518834" lon="3.1577925364664283"><ele>326.6666666666667</ele><time>2026-04-19T13:56:40.999Z</time></trkpt><trkpt lat="47.16349201974513" lon="3.1577387648476583"><ele>327.0</ele><time>2026-04-19T13:56:42.999Z</time></trkpt><trkpt lat="47.16342368174756" lon="3.1576825507799495"><ele>327.0</ele><time>2026-04-19T13:56:44.999Z</time></trkpt><trkpt lat="47.16334298779868" lon="3.1576141902595283"><ele>327.0</ele><time>2026-04-19T13:56:46.999Z</time></trkpt><trkpt lat="47.16324713271296" lon="3.157557836636696"><ele>327.0</ele><time>2026-04-19T13:56:48.999Z</time></trkpt><trkpt lat="47.16316949879636" lon="3.157485418940064"><ele>327.0</ele><time>2026-04-19T13:56:50.999Z</time></trkpt><trkpt lat="47.163094040648275" lon="3.1574174283049836"><ele>327.0</ele><time>2026-04-19T13:56:52.999Z</time></trkpt><trkpt lat="47.16303057787454" lon="3.157348404545316"><ele>327.8</ele><time>2026-04-19T13:56:54.999Z</time></trkpt><trkpt lat="47.16294359827404" lon="3.157298221044285"><ele>328.6</ele><time>2026-04-19T13:56:56.999Z</time></trkpt><trkpt lat="47.16284872209791" lon="3.1572241083462753"><ele>329.40000000000003</ele><time>2026-04-19T13:56:58.999Z</time></trkpt><trkpt lat="47.16277288182752" lon="3.1571338017964825"><ele>330.20000000000005</ele><time>2026-04-19T13:57:00.999Z</time></trkpt><trkpt lat="47.16270020439426" lon="3.1570756925591046"><ele>331.0</ele><time>2026-04-19T13:57:02.999Z</time></trkpt><trkpt lat="47.162614954764464" lon="3.157026857699255"><ele>331.0</ele><time>2026-04-19T13:57:04.999Z</time></trkpt><trkpt lat="47.162536885763934" lon="3.156986701856555"><ele>331.0</ele><time>2026-04-19T13:57:06.999Z</time></trkpt><trkpt lat="47.162460530900425" lon="3.1569167060306023"><ele>331.0</ele><time>2026-04-19T13:57:08.999Z</time></trkpt><trkpt lat="47.16235612735033" lon="3.156844084802294"><ele>331.0</ele><time>2026-04-19T13:57:10.999Z</time></trkpt><trkpt lat="47.16227726469393" lon="3.156786749685191"><ele>331.0</ele><time>2026-04-19T13:57:12.999Z</time></trkpt><trkpt lat="47.16220764844376" lon="3.156729145870948"><ele>331.20000000000005</ele><time>2026-04-19T13:57:14.999Z</time></trkpt><trkpt lat="47.16209729106225" lon="3.156641420492126"><ele>331.40000000000003</ele><time>2026-04-19T13:57:16.999Z</time></trkpt><trkpt lat="47.16204650606198" lon="3.1565840441435036"><ele>331.6</ele><time>2026-04-19T13:57:17.999Z</time></trkpt><trkpt lat="47.16199037735357" lon="3.156538414487086"><ele>331.8</ele><time>2026-04-19T13:57:18.999Z</time></trkpt><trkpt lat="47.16188827737418" lon="3.1564743196022467"><ele>332.0</ele><time>2026-04-19T13:57:20.999Z</time></trkpt><trkpt lat="47.161776495228764" lon="3.156400133504049"><ele>332.25</ele><time>2026-04-19T13:57:22.999Z</time></trkpt><trkpt lat="47.16166066897129" lon="3.156295715270994"><ele>332.5</ele><time>2026-04-19T13:57:24.999Z</time></trkpt><trkpt lat="47.16154116119131" lon="3.156201777213667"><ele>332.75</ele><time>2026-04-19T13:57:26.999Z</time></trkpt><trkpt lat="47.16143268144186" lon="3.156128999292665"><ele>333.0</ele><time>2026-04-19T13:57:29Z</time></trkpt><trkpt lat="47.16132795642126" lon="3.1560508293498053"><ele>333.0</ele><time>2026-04-19T13:57:31Z</time></trkpt><trkpt lat="47.16123813711082" lon="3.1559850011698876"><ele>333.0</ele><time>2026-04-19T13:57:33Z</time></trkpt><trkpt lat="47.16115026595462" lon="3.155909870135498"><ele>333.0</ele><time>2026-04-19T13:57:35Z</time></trkpt><trkpt lat="47.161052511025105" lon="3.155810938681917"><ele>333.0</ele><time>2026-04-19T13:57:37Z</time></trkpt><trkpt lat="47.160990279366125" lon="3.1557740398933474"><ele>333.0</ele><time>2026-04-19T13:57:38Z</time></trkpt><trkpt lat="47.16089353503171" lon="3.1557008371868025"><ele>333.2</ele><time>2026-04-19T13:57:40Z</time></trkpt><trkpt lat="47.16083760621628" lon="3.155654043007949"><ele>333.4</ele><time>2026-04-19T13:57:41Z</time></trkpt><trkpt lat="47.16074472449155" lon="3.1555749672372277"><ele>333.59999999999997</ele><time>2026-04-19T13:57:43Z</time></trkpt><trkpt lat="47.16065692650131" lon="3.1554906521863737"><ele>333.79999999999995</ele><time>2026-04-19T13:57:45Z</time></trkpt><trkpt lat="47.160595702489616" lon="3.1554522237071043"><ele>334.0</ele><time>2026-04-19T13:57:46Z</time></trkpt><trkpt lat="47.16049063589171" lon="3.1553780561568794"><ele>334.0</ele><time>2026-04-19T13:57:48Z</time></trkpt><trkpt lat="47.16041297597433" lon="3.1553170322854687"><ele>334.0</ele><time>2026-04-19T13:57:50Z</time></trkpt><trkpt lat="47.16032331895978" lon="3.1552393988347767"><ele>334.0</ele><time>2026-04-19T13:57:52Z</time></trkpt><trkpt lat="47.1602387744078" lon="3.155173920165159"><ele>334.0</ele><time>2026-04-19T13:57:54Z</time></trkpt><trkpt lat="47.16012778349547" lon="3.1550849337624753"><ele>334.0</ele><time>2026-04-19T13:57:56Z</time></trkpt><trkpt lat="47.16002357216661" lon="3.1549950620175706"><ele>334.0</ele><time>2026-04-19T13:57:58Z</time></trkpt><trkpt lat="47.15995717388544" lon="3.154950221704529"><ele>334.0</ele><time>2026-04-19T13:57:59Z</time></trkpt><trkpt lat="47.159894131021595" lon="3.1549056463934226"><ele>334.0</ele><time>2026-04-19T13:58:00Z</time></trkpt><trkpt lat="47.159800565733484" lon="3.1548362287435108"><ele>334.0</ele><time>2026-04-19T13:58:02Z</time></trkpt><trkpt lat="47.15972217076614" lon="3.1547708136520107"><ele>334.0</ele><time>2026-04-19T13:58:04Z</time></trkpt><trkpt lat="47.15965109586686" lon="3.15473449494776"><ele>334.0</ele><time>2026-04-19T13:58:06Z</time></trkpt><trkpt lat="47.159584861857525" lon="3.1546777703411495"><ele>333.0</ele><time>2026-04-19T13:58:11Z</time></trkpt><trkpt lat="47.159503075012864" lon="3.154734133944507"><ele>332.0</ele><time>2026-04-19T13:58:13Z</time></trkpt><trkpt lat="47.15944731181205" lon="3.1548379747478017"><ele>331.0</ele><time>2026-04-19T13:58:14Z</time></trkpt><trkpt lat="47.159390597942526" lon="3.1549534682139875"><ele>330.0</ele><time>2026-04-19T13:58:15Z</time></trkpt><trkpt lat="47.15932709266537" lon="3.155064562236984"><ele>329.0</ele><time>2026-04-19T13:58:16Z</time></trkpt><trkpt lat="47.15927176226962" lon="3.155176303507203"><ele>328.79999999999995</ele><time>2026-04-19T13:58:17Z</time></trkpt><trkpt lat="47.15922556501113" lon="3.155272214290012"><ele>328.59999999999997</ele><time>2026-04-19T13:58:18Z</time></trkpt><trkpt lat="47.1591683743727" lon="3.1553927901583445"><ele>328.4</ele><time>2026-04-19T13:58:20Z</time></trkpt><trkpt lat="47.159076285439816" lon="3.1554197458966464"><ele>328.2</ele><time>2026-04-19T13:58:22.999Z</time></trkpt><trkpt lat="47.15898822286701" lon="3.155296694152061"><ele>328.0</ele><time>2026-04-19T13:58:24.999Z</time></trkpt><trkpt lat="47.15896556525327" lon="3.1552010945089948"><ele>328.0</ele><time>2026-04-19T13:58:25.999Z</time></trkpt><trkpt lat="47.15893145718144" lon="3.155088975386364"><ele>328.0</ele><time>2026-04-19T13:58:26.999Z</time></trkpt><trkpt lat="47.15890414887604" lon="3.1549921932992997"><ele>328.0</ele><time>2026-04-19T13:58:27.999Z</time></trkpt><trkpt lat="47.15887699334926" lon="3.1548559289699125"><ele>328.0</ele><time>2026-04-19T13:58:29.999Z</time></trkpt><trkpt lat="47.15884719663901" lon="3.1547485488145575"><ele>328.0</ele><time>2026-04-19T13:58:31.999Z</time></trkpt><trkpt lat="47.158774516013054" lon="3.154724350887724"><ele>328.0</ele><time>2026-04-19T13:58:33.999Z</time></trkpt><trkpt lat="47.15867262739902" lon="3.15478965527274"><ele>328.0</ele><time>2026-04-19T13:58:35.999Z</time></trkpt><trkpt lat="47.15861043610124" lon="3.1548275523655795"><ele>328.0</ele><time>2026-04-19T13:58:36.999Z</time></trkpt><trkpt lat="47.158518105674624" lon="3.1548689856923713"><ele>328.0</ele><time>2026-04-19T13:58:38.999Z</time></trkpt><trkpt lat="47.15842898632623" lon="3.1548752494004817"><ele>328.0</ele><time>2026-04-19T13:58:40.999Z</time></trkpt><trkpt lat="47.15832254218003" lon="3.1547997090853905"><ele>328.0</ele><time>2026-04-19T13:58:42.999Z</time></trkpt><trkpt lat="47.158247990869945" lon="3.15473419865239"><ele>329.0</ele><time>2026-04-19T13:58:43.999Z</time></trkpt><trkpt lat="47.15816372289443" lon="3.1546352583378248"><ele>330.0</ele><time>2026-04-19T13:58:44.999Z</time></trkpt><trkpt lat="47.15804125568035" lon="3.154550976787805"><ele>331.0</ele><time>2026-04-19T13:58:45.999Z</time></trkpt><trkpt lat="47.15790975914795" lon="3.154455273848183"><ele>332.0</ele><time>2026-04-19T13:58:46.999Z</time></trkpt><trkpt lat="47.157791657138986" lon="3.15437689979662"><ele>332.0</ele><time>2026-04-19T13:58:47.999Z</time></trkpt><trkpt lat="47.15770810443067" lon="3.154306668573271"><ele>332.0</ele><time>2026-04-19T13:58:48.999Z</time></trkpt><trkpt lat="47.15760214347129" lon="3.1542544897711307"><ele>332.0</ele><time>2026-04-19T13:58:49.999Z</time></trkpt><trkpt lat="47.15749918480936" lon="3.154152595368742"><ele>332.0</ele><time>2026-04-19T13:58:50.999Z</time></trkpt><trkpt lat="47.15738740732107" lon="3.1540777820843093"><ele>332.20000000000005</ele><time>2026-04-19T13:58:51.999Z</time></trkpt><trkpt lat="47.157292972800526" lon="3.154017251524702"><ele>332.4</ele><time>2026-04-19T13:58:52.999Z</time></trkpt><trkpt lat="47.15720585224741" lon="3.153919645085826"><ele>332.6</ele><time>2026-04-19T13:58:53.999Z</time></trkpt><trkpt lat="47.15712130933303" lon="3.1538390584464255"><ele>332.79999999999995</ele><time>2026-04-19T13:58:54.999Z</time></trkpt><trkpt lat="47.157017770536164" lon="3.1537782424202243"><ele>333.0</ele><time>2026-04-19T13:58:55.999Z</time></trkpt><trkpt lat="47.156922003400226" lon="3.1537259987606414"><ele>333.0</ele><time>2026-04-19T13:58:56.999Z</time></trkpt><trkpt lat="47.15682312566945" lon="3.153648254592813"><ele>333.0</ele><time>2026-04-19T13:58:57.999Z</time></trkpt><trkpt lat="47.15677062106395" lon="3.1535671485521526"><ele>333.0</ele><time>2026-04-19T13:58:58.999Z</time></trkpt><trkpt lat="47.15668100206077" lon="3.1534720376457837"><ele>333.0</ele><time>2026-04-19T13:59:00.999Z</time></trkpt><trkpt lat="47.15661724516493" lon="3.1534098768560783"><ele>333.0</ele><time>2026-04-19T13:59:02.999Z</time></trkpt><trkpt lat="47.15656075272285" lon="3.1533493880439294"><ele>333.0</ele><time>2026-04-19T13:59:04.999Z</time></trkpt><trkpt lat="47.156489264634466" lon="3.153327970311405"><ele>333.0</ele><time>2026-04-19T13:59:08.999Z</time></trkpt><trkpt lat="47.15640863791723" lon="3.153400349719176"><ele>333.0</ele><time>2026-04-19T13:59:12.999Z</time></trkpt><trkpt lat="47.15641194431163" lon="3.153573053586422"><ele>333.0</ele><time>2026-04-19T13:59:14.999Z</time></trkpt><trkpt lat="47.15641986867463" lon="3.1537026852772163"><ele>333.0</ele><time>2026-04-19T13:59:17.999Z</time></trkpt><trkpt lat="47.15645164877658" lon="3.153837827790448"><ele>333.0</ele><time>2026-04-19T13:59:20.999Z</time></trkpt><trkpt lat="47.1564588164181" lon="3.1540014418364968"><ele>334.1666666666667</ele><time>2026-04-19T13:59:22.999Z</time></trkpt><trkpt lat="47.15644138154588" lon="3.154107887827967"><ele>335.3333333333333</ele><time>2026-04-19T13:59:24.999Z</time></trkpt><trkpt lat="47.15640839464692" lon="3.1542178068678517"><ele>336.5</ele><time>2026-04-19T13:59:25.999Z</time></trkpt><trkpt lat="47.15637068620675" lon="3.1543783950588593"><ele>337.66666666666663</ele><time>2026-04-19T13:59:26.999Z</time></trkpt><trkpt lat="47.156353710486364" lon="3.1544790536878646"><ele>338.8333333333333</ele><time>2026-04-19T13:59:27.999Z</time></trkpt><trkpt lat="47.156350722229746" lon="3.154597031709702"><ele>340.0</ele><time>2026-04-19T13:59:28.999Z</time></trkpt><trkpt lat="47.15630264738177" lon="3.1547081080104196"><ele>340.0</ele><time>2026-04-19T13:59:29.999Z</time></trkpt><trkpt lat="47.156225480074696" lon="3.1550298258896348"><ele>340.0</ele><time>2026-04-19T13:59:30.999Z</time></trkpt><trkpt lat="47.15616127272261" lon="3.155136629553652"><ele>340.0</ele><time>2026-04-19T13:59:31.999Z</time></trkpt><trkpt lat="47.15612275101569" lon="3.155278407098675"><ele>340.0</ele><time>2026-04-19T13:59:32.999Z</time></trkpt><trkpt lat="47.156077344010846" lon="3.1554129393134596"><ele>340.0</ele><time>2026-04-19T13:59:33.999Z</time></trkpt><trkpt lat="47.15605492372154" lon="3.1555345675427176"><ele>340.0</ele><time>2026-04-19T13:59:35Z</time></trkpt><trkpt lat="47.15600529033598" lon="3.1557077168540273"><ele>340.0</ele><time>2026-04-19T13:59:37Z</time></trkpt><trkpt lat="47.1559742207032" lon="3.1558134816441332"><ele>340.0</ele><time>2026-04-19T13:59:38Z</time></trkpt><trkpt lat="47.15593703265479" lon="3.1560018349576215"><ele>340.0</ele><time>2026-04-19T13:59:40Z</time></trkpt><trkpt lat="47.1558770271267" lon="3.1561748199426427"><ele>339.8</ele><time>2026-04-19T13:59:41Z</time></trkpt><trkpt lat="47.1558448672176" lon="3.156270500619228"><ele>339.6</ele><time>2026-04-19T13:59:42Z</time></trkpt><trkpt lat="47.15578587100126" lon="3.1564107199714586"><ele>339.4</ele><time>2026-04-19T13:59:44Z</time></trkpt><trkpt lat="47.155720455308234" lon="3.1565372145590884"><ele>339.2</ele><time>2026-04-19T13:59:46Z</time></trkpt><trkpt lat="47.155709412818396" lon="3.1566371604800976"><ele>339.0</ele><time>2026-04-19T13:59:47Z</time></trkpt><trkpt lat="47.155689303669924" lon="3.156835686451778"><ele>339.0</ele><time>2026-04-19T13:59:49Z</time></trkpt><trkpt lat="47.15562710564269" lon="3.1569523573036635"><ele>339.0</ele><time>2026-04-19T13:59:50Z</time></trkpt><trkpt lat="47.15559304629712" lon="3.157054376993446"><ele>339.0</ele><time>2026-04-19T13:59:51Z</time></trkpt><trkpt lat="47.15552804389254" lon="3.1572290034002757"><ele>339.0</ele><time>2026-04-19T13:59:53Z</time></trkpt><trkpt lat="47.15547515840871" lon="3.1573724144527806"><ele>339.0</ele><time>2026-04-19T13:59:56Z</time></trkpt><trkpt lat="47.15543271859287" lon="3.157498158875102"><ele>337.5</ele><time>2026-04-19T13:59:57Z</time></trkpt><trkpt lat="47.15540001502768" lon="3.1576065492806147"><ele>336.0</ele><time>2026-04-19T13:59:58Z</time></trkpt><trkpt lat="47.15533618878834" lon="3.1577968859917314"><ele>334.5</ele><time>2026-04-19T14:00:00Z</time></trkpt><trkpt lat="47.155269479500376" lon="3.157931725886638"><ele>333.0</ele><time>2026-04-19T14:00:01Z</time></trkpt><trkpt lat="47.15522956430382" lon="3.1581277189036"><ele>332.2</ele><time>2026-04-19T14:00:02Z</time></trkpt><trkpt lat="47.15518288431775" lon="3.1582695962542386"><ele>331.4</ele><time>2026-04-19T14:00:03Z</time></trkpt><trkpt lat="47.15515859225073" lon="3.1584020637030266"><ele>330.59999999999997</ele><time>2026-04-19T14:00:04Z</time></trkpt><trkpt lat="47.15511943838877" lon="3.1585298041791345"><ele>329.79999999999995</ele><time>2026-04-19T14:00:05Z</time></trkpt><trkpt lat="47.15508146016535" lon="3.1586633847085874"><ele>329.0</ele><time>2026-04-19T14:00:06Z</time></trkpt><trkpt lat="47.15506269869705" lon="3.158755663132043"><ele>329.0</ele><time>2026-04-19T14:00:07Z</time></trkpt><trkpt lat="47.155010411137894" lon="3.1588293411178685"><ele>329.0</ele><time>2026-04-19T14:00:08Z</time></trkpt><trkpt lat="47.154990168699676" lon="3.158934623577731"><ele>329.0</ele><time>2026-04-19T14:00:09Z</time></trkpt><trkpt lat="47.15496619680406" lon="3.1590466559985493"><ele>329.0</ele><time>2026-04-19T14:00:10Z</time></trkpt><trkpt lat="47.15488982293676" lon="3.1591400360151707"><ele>329.0</ele><time>2026-04-19T14:00:12Z</time></trkpt><trkpt lat="47.15487081467166" lon="3.1592479839348044"><ele>329.0</ele><time>2026-04-19T14:00:13Z</time></trkpt><trkpt lat="47.15485866523787" lon="3.1593502787560808"><ele>327.6666666666667</ele><time>2026-04-19T14:00:16Z</time></trkpt><trkpt lat="47.15483564382791" lon="3.159455406553835"><ele>326.3333333333333</ele><time>2026-04-19T14:00:20Z</time></trkpt><trkpt lat="47.15476004262068" lon="3.159448075717731"><ele>325.0</ele><time>2026-04-19T14:00:23Z</time></trkpt><trkpt lat="47.154468148641975" lon="3.1592667472089917"><ele>325.0</ele><time>2026-04-19T14:00:24Z</time></trkpt><trkpt lat="47.154366657999105" lon="3.1591966250942574"><ele>325.0</ele><time>2026-04-19T14:00:25Z</time></trkpt><trkpt lat="47.15425127657224" lon="3.159094685978505"><ele>325.0</ele><time>2026-04-19T14:00:26Z</time></trkpt><trkpt lat="47.15412624783674" lon="3.1590117023930144"><ele>325.0</ele><time>2026-04-19T14:00:27Z</time></trkpt><trkpt lat="47.15396723677235" lon="3.158879209591658"><ele>326.3333333333333</ele><time>2026-04-19T14:00:27.999Z</time></trkpt><trkpt lat="47.153825420525905" lon="3.1587784901326326"><ele>327.6666666666667</ele><time>2026-04-19T14:00:28.999Z</time></trkpt><trkpt lat="47.15368123334208" lon="3.1586736708563263"><ele>329.0</ele><time>2026-04-19T14:00:29.999Z</time></trkpt><trkpt lat="47.153529287898444" lon="3.1585630035434678"><ele>329.0</ele><time>2026-04-19T14:00:30.999Z</time></trkpt><trkpt lat="47.1533777312402" lon="3.1584521332398796"><ele>329.0</ele><time>2026-04-19T14:00:31.999Z</time></trkpt><trkpt lat="47.15322759814235" lon="3.1583656716111057"><ele>329.0</ele><time>2026-04-19T14:00:32.999Z</time></trkpt><trkpt lat="47.153090873188454" lon="3.1582433416612687"><ele>329.0</ele><time>2026-04-19T14:00:33.999Z</time></trkpt><trkpt lat="47.15296133298172" lon="3.158149455992399"><ele>329.0</ele><time>2026-04-19T14:00:34.999Z</time></trkpt><trkpt lat="47.15284721624958" lon="3.158088708071055"><ele>329.0</ele><time>2026-04-19T14:00:35.999Z</time></trkpt><trkpt lat="47.1527393368556" lon="3.157988561798417"><ele>329.0</ele><time>2026-04-19T14:00:36.999Z</time></trkpt><trkpt lat="47.152634937432275" lon="3.1579146498987973"><ele>329.0</ele><time>2026-04-19T14:00:37.999Z</time></trkpt><trkpt lat="47.15253797520201" lon="3.157830721210447"><ele>329.0</ele><time>2026-04-19T14:00:38.999Z</time></trkpt><trkpt lat="47.15245230773642" lon="3.157747236577562"><ele>329.0</ele><time>2026-04-19T14:00:39.999Z</time></trkpt><trkpt lat="47.152355127394344" lon="3.157645170996453"><ele>329.0</ele><time>2026-04-19T14:00:40.999Z</time></trkpt><trkpt lat="47.15226868574076" lon="3.1574971958315263"><ele>328.75</ele><time>2026-04-19T14:00:41.999Z</time></trkpt><trkpt lat="47.1521952179244" lon="3.1573608851790858"><ele>328.5</ele><time>2026-04-19T14:00:42.999Z</time></trkpt><trkpt lat="47.15210976315584" lon="3.157225792099115"><ele>328.25</ele><time>2026-04-19T14:00:43.999Z</time></trkpt><trkpt lat="47.15200598960849" lon="3.1570881580798025"><ele>328.0</ele><time>2026-04-19T14:00:44.999Z</time></trkpt><trkpt lat="47.15190539166792" lon="3.1569100869493876"><ele>328.0</ele><time>2026-04-19T14:00:45.999Z</time></trkpt><trkpt lat="47.151797558382924" lon="3.156725259888783"><ele>328.0</ele><time>2026-04-19T14:00:46.999Z</time></trkpt><trkpt lat="47.15167717064986" lon="3.1565470834362976"><ele>328.0</ele><time>2026-04-19T14:00:47.999Z</time></trkpt><trkpt lat="47.151564751224356" lon="3.156367424557325"><ele>327.5</ele><time>2026-04-19T14:00:48.999Z</time></trkpt><trkpt lat="47.15147088567657" lon="3.1562272515897494"><ele>327.0</ele><time>2026-04-19T14:00:49.999Z</time></trkpt><trkpt lat="47.151394186293174" lon="3.156095778628141"><ele>326.5</ele><time>2026-04-19T14:00:50.999Z</time></trkpt><trkpt lat="47.15131575725356" lon="3.1559798387689524"><ele>326.0</ele><time>2026-04-19T14:00:51.999Z</time></trkpt><trkpt lat="47.15124628974154" lon="3.1558763168572646"><ele>326.0</ele><time>2026-04-19T14:00:52.999Z</time></trkpt><trkpt lat="47.15119119121641" lon="3.155787799299197"><ele>326.0</ele><time>2026-04-19T14:00:53.999Z</time></trkpt><trkpt lat="47.15114739724252" lon="3.1557193856284482"><ele>326.0</ele><time>2026-04-19T14:00:54.999Z</time></trkpt><trkpt lat="47.15109120338797" lon="3.1556154515087265"><ele>326.0</ele><time>2026-04-19T14:00:56.999Z</time></trkpt><trkpt lat="47.1509993487585" lon="3.1557116180676537"><ele>326.0</ele><time>2026-04-19T14:00:58.999Z</time></trkpt><trkpt lat="47.15090301772905" lon="3.155802432662736"><ele>326.0</ele><time>2026-04-19T14:00:59.999Z</time></trkpt><trkpt lat="47.15082968403505" lon="3.1559357913463395"><ele>326.0</ele><time>2026-04-19T14:01:00.999Z</time></trkpt><trkpt lat="47.15074350567467" lon="3.156090906533306"><ele>326.0</ele><time>2026-04-19T14:01:01.999Z</time></trkpt><trkpt lat="47.15068406176063" lon="3.1561978362442966"><ele>326.0</ele><time>2026-04-19T14:01:02.999Z</time></trkpt><trkpt lat="47.150639413323816" lon="3.1563156372230807"><ele>326.0</ele><time>2026-04-19T14:01:04.999Z</time></trkpt><trkpt lat="47.1505836709705" lon="3.156376689813314"><ele>325.8</ele><time>2026-04-19T14:01:05.999Z</time></trkpt><trkpt lat="47.15055588902714" lon="3.1564911586433237"><ele>325.6</ele><time>2026-04-19T14:01:06.999Z</time></trkpt><trkpt lat="47.15053328724781" lon="3.1566042293894636"><ele>325.4</ele><time>2026-04-19T14:01:07.999Z</time></trkpt><trkpt lat="47.150511662984314" lon="3.156833311859053"><ele>325.2</ele><time>2026-04-19T14:01:09.999Z</time></trkpt><trkpt lat="47.15051755750451" lon="3.1569414690140407"><ele>325.0</ele><time>2026-04-19T14:01:10.999Z</time></trkpt><trkpt lat="47.15053638775042" lon="3.1570706637218384"><ele>325.0</ele><time>2026-04-19T14:01:12.999Z</time></trkpt><trkpt lat="47.15054448019689" lon="3.15718222968341"><ele>325.0</ele><time>2026-04-19T14:01:14.999Z</time></trkpt><trkpt lat="47.15037836833205" lon="3.157384274219063"><ele>325.0</ele><time>2026-04-19T14:01:16.999Z</time></trkpt><trkpt lat="47.15030815811904" lon="3.157452561921481"><ele>325.0</ele><time>2026-04-19T14:01:17.999Z</time></trkpt><trkpt lat="47.150231646522506" lon="3.1575391657961327"><ele>323.25</ele><time>2026-04-19T14:01:18.999Z</time></trkpt><trkpt lat="47.15015096410512" lon="3.1576404845853356"><ele>321.5</ele><time>2026-04-19T14:01:19.999Z</time></trkpt><trkpt lat="47.15004301955444" lon="3.157773177436262"><ele>319.75</ele><time>2026-04-19T14:01:20.999Z</time></trkpt><trkpt lat="47.149931808040314" lon="3.157898448353031"><ele>318.0</ele><time>2026-04-19T14:01:21.999Z</time></trkpt><trkpt lat="47.149840753771905" lon="3.158007145491066"><ele>318.0</ele><time>2026-04-19T14:01:22.999Z</time></trkpt><trkpt lat="47.14974929467041" lon="3.1581184184817825"><ele>318.0</ele><time>2026-04-19T14:01:23.999Z</time></trkpt><trkpt lat="47.14963918310176" lon="3.1582595125148027"><ele>318.0</ele><time>2026-04-19T14:01:24.999Z</time></trkpt><trkpt lat="47.149519775632825" lon="3.158394613620297"><ele>318.0</ele><time>2026-04-19T14:01:25.999Z</time></trkpt><trkpt lat="47.149414812875605" lon="3.1585181547615444"><ele>317.8</ele><time>2026-04-19T14:01:26.999Z</time></trkpt><trkpt lat="47.14932818561841" lon="3.15862080632841"><ele>317.6</ele><time>2026-04-19T14:01:27.999Z</time></trkpt><trkpt lat="47.14925684824927" lon="3.1587206889726605"><ele>317.4</ele><time>2026-04-19T14:01:28.999Z</time></trkpt><trkpt lat="47.149176510883066" lon="3.1588178535466285"><ele>317.2</ele><time>2026-04-19T14:01:29.999Z</time></trkpt><trkpt lat="47.14907481780734" lon="3.1589342434129217"><ele>317.0</ele><time>2026-04-19T14:01:30.999Z</time></trkpt><trkpt lat="47.14894026281608" lon="3.159072023312752"><ele>316.6666666666667</ele><time>2026-04-19T14:01:31.999Z</time></trkpt><trkpt lat="47.14878797018538" lon="3.1592260150559492"><ele>316.3333333333333</ele><time>2026-04-19T14:01:32.999Z</time></trkpt><trkpt lat="47.148657341293784" lon="3.1593697513808863"><ele>316.0</ele><time>2026-04-19T14:01:33.999Z</time></trkpt><trkpt lat="47.148553222874796" lon="3.1594840630947516"><ele>316.0</ele><time>2026-04-19T14:01:34.999Z</time></trkpt><trkpt lat="47.14845634545658" lon="3.1595928059446194"><ele>316.0</ele><time>2026-04-19T14:01:35.999Z</time></trkpt><trkpt lat="47.14834257149979" lon="3.1596917285900488"><ele>316.0</ele><time>2026-04-19T14:01:36.999Z</time></trkpt><trkpt lat="47.14822049922875" lon="3.159813075697954"><ele>316.0</ele><time>2026-04-19T14:01:37.999Z</time></trkpt><trkpt lat="47.14811801290336" lon="3.1598966887256146"><ele>316.6</ele><time>2026-04-19T14:01:38.999Z</time></trkpt><trkpt lat="47.14802611388258" lon="3.159976857913033"><ele>317.20000000000005</ele><time>2026-04-19T14:01:39.999Z</time></trkpt><trkpt lat="47.14793410540019" lon="3.1600519613482665"><ele>317.79999999999995</ele><time>2026-04-19T14:01:41Z</time></trkpt><trkpt lat="47.14787192972945" lon="3.160090672323896"><ele>318.4</ele><time>2026-04-19T14:01:42Z</time></trkpt><trkpt lat="47.147788708732335" lon="3.1601393397717765"><ele>319.0</ele><time>2026-04-19T14:01:43Z</time></trkpt><trkpt lat="47.14770500463852" lon="3.1601881792819393"><ele>319.0</ele><time>2026-04-19T14:01:44Z</time></trkpt><trkpt lat="47.14756710591665" lon="3.16026347129691"><ele>319.0</ele><time>2026-04-19T14:01:45Z</time></trkpt><trkpt lat="47.14744608848638" lon="3.1603350120177334"><ele>319.0</ele><time>2026-04-19T14:01:46Z</time></trkpt><trkpt lat="47.14736332240707" lon="3.160407875481563"><ele>319.0</ele><time>2026-04-19T14:01:47Z</time></trkpt><trkpt lat="47.14727383767629" lon="3.1604919179470445"><ele>319.0</ele><time>2026-04-19T14:01:48Z</time></trkpt><trkpt lat="47.147158575952574" lon="3.160584139933094"><ele>319.0</ele><time>2026-04-19T14:01:49Z</time></trkpt><trkpt lat="47.14706559906445" lon="3.1607132741555524"><ele>319.0</ele><time>2026-04-19T14:01:50Z</time></trkpt><trkpt lat="47.14698866422433" lon="3.1607960018142256"><ele>319.0</ele><time>2026-04-19T14:01:51Z</time></trkpt><trkpt lat="47.14692766689677" lon="3.1608651675314583"><ele>319.0</ele><time>2026-04-19T14:01:52Z</time></trkpt><trkpt lat="47.14685345948169" lon="3.1609336308457183"><ele>319.0</ele><time>2026-04-19T14:01:53Z</time></trkpt><trkpt lat="47.14678382746385" lon="3.1610052111028724"><ele>319.0</ele><time>2026-04-19T14:01:54Z</time></trkpt><trkpt lat="47.146727332550086" lon="3.161082671954492"><ele>319.0</ele><time>2026-04-19T14:01:55Z</time></trkpt><trkpt lat="47.14667423010946" lon="3.1611654040146253"><ele>319.0</ele><time>2026-04-19T14:01:56Z</time></trkpt><trkpt lat="47.14661411140868" lon="3.1612681861527414"><ele>319.0</ele><time>2026-04-19T14:01:57Z</time></trkpt><trkpt lat="47.14654413684158" lon="3.1614110827464272"><ele>319.79999999999995</ele><time>2026-04-19T14:01:58Z</time></trkpt><trkpt lat="47.146470307344615" lon="3.1615112778031706"><ele>320.59999999999997</ele><time>2026-04-19T14:01:59Z</time></trkpt><trkpt lat="47.14639525466487" lon="3.161598112996271"><ele>321.4</ele><time>2026-04-19T14:02:00Z</time></trkpt><trkpt lat="47.1463141708372" lon="3.1617030550540557"><ele>322.2</ele><time>2026-04-19T14:02:01Z</time></trkpt><trkpt lat="47.14622097753655" lon="3.161852751901019"><ele>323.0</ele><time>2026-04-19T14:02:02Z</time></trkpt><trkpt lat="47.1461382143943" lon="3.161988829727106"><ele>323.0</ele><time>2026-04-19T14:02:03Z</time></trkpt><trkpt lat="47.14605278129639" lon="3.162104847955887"><ele>323.0</ele><time>2026-04-19T14:02:04Z</time></trkpt><trkpt lat="47.14597324610577" lon="3.162188327090764"><ele>323.0</ele><time>2026-04-19T14:02:05Z</time></trkpt><trkpt lat="47.1459104957194" lon="3.1623083685643576"><ele>323.0</ele><time>2026-04-19T14:02:06Z</time></trkpt><trkpt lat="47.14584947300948" lon="3.1624132924914155"><ele>323.0</ele><time>2026-04-19T14:02:07Z</time></trkpt><trkpt lat="47.1457650205542" lon="3.1624790228829056"><ele>323.6666666666667</ele><time>2026-04-19T14:02:08Z</time></trkpt><trkpt lat="47.14570045468077" lon="3.1625843496336135"><ele>324.33333333333337</ele><time>2026-04-19T14:02:09Z</time></trkpt><trkpt lat="47.14565115516153" lon="3.1626654179925717"><ele>325.0</ele><time>2026-04-19T14:02:10Z</time></trkpt><trkpt lat="47.145600059238234" lon="3.1627911583379493"><ele>325.6666666666667</ele><time>2026-04-19T14:02:11Z</time></trkpt><trkpt lat="47.14552735707597" lon="3.1628733340691078"><ele>326.3333333333333</ele><time>2026-04-19T14:02:12Z</time></trkpt><trkpt lat="47.14547812979306" lon="3.162935577186467"><ele>327.0</ele><time>2026-04-19T14:02:13Z</time></trkpt><trkpt lat="47.14539397127045" lon="3.163079589363499"><ele>327.0</ele><time>2026-04-19T14:02:15Z</time></trkpt><trkpt lat="47.145340873438826" lon="3.163170089602919"><ele>327.0</ele><time>2026-04-19T14:02:16Z</time></trkpt><trkpt lat="47.14527102577569" lon="3.163226818117121"><ele>327.0</ele><time>2026-04-19T14:02:17Z</time></trkpt><trkpt lat="47.14522321976243" lon="3.163322607469344"><ele>327.0</ele><time>2026-04-19T14:02:18Z</time></trkpt><trkpt lat="47.14518798020379" lon="3.163400225159724"><ele>327.0</ele><time>2026-04-19T14:02:19Z</time></trkpt><trkpt lat="47.145089550659755" lon="3.1635199094744912"><ele>327.0</ele><time>2026-04-19T14:02:21Z</time></trkpt><trkpt lat="47.14503599812526" lon="3.163576462079004"><ele>326.1666666666667</ele><time>2026-04-19T14:02:22Z</time></trkpt><trkpt lat="47.144986984429856" lon="3.163649928742954"><ele>325.3333333333333</ele><time>2026-04-19T14:02:25Z</time></trkpt><trkpt lat="47.144919169633816" lon="3.16372555224693"><ele>324.5</ele><time>2026-04-19T14:02:38.999Z</time></trkpt><trkpt lat="47.14490750861628" lon="3.1638207711765185"><ele>323.66666666666663</ele><time>2026-04-19T14:02:39.999Z</time></trkpt><trkpt lat="47.144906521536946" lon="3.1639261618640617"><ele>322.8333333333333</ele><time>2026-04-19T14:02:40.999Z</time></trkpt><trkpt lat="47.144911440901346" lon="3.16404543151811"><ele>322.0</ele><time>2026-04-19T14:02:41.999Z</time></trkpt><trkpt lat="47.144919425575104" lon="3.164173779121936"><ele>322.0</ele><time>2026-04-19T14:02:42.999Z</time></trkpt><trkpt lat="47.144913595266885" lon="3.1642973335336424"><ele>322.0</ele><time>2026-04-19T14:02:43.999Z</time></trkpt><trkpt lat="47.14492306403141" lon="3.164439352630146"><ele>322.0</ele><time>2026-04-19T14:02:44.999Z</time></trkpt><trkpt lat="47.14493283970672" lon="3.1645897019547253"><ele>322.0</ele><time>2026-04-19T14:02:45.999Z</time></trkpt><trkpt lat="47.14494441571229" lon="3.1647586178207914"><ele>322.0</ele><time>2026-04-19T14:02:46.999Z</time></trkpt><trkpt lat="47.144944039083896" lon="3.1649190638102263"><ele>322.0</ele><time>2026-04-19T14:02:47.999Z</time></trkpt><trkpt lat="47.144947437862534" lon="3.1650707136916774"><ele>322.0</ele><time>2026-04-19T14:02:48.999Z</time></trkpt><trkpt lat="47.14495148265439" lon="3.165228561776444"><ele>322.0</ele><time>2026-04-19T14:02:49.999Z</time></trkpt><trkpt lat="47.14495244753082" lon="3.165395847127965"><ele>322.0</ele><time>2026-04-19T14:02:50.999Z</time></trkpt><trkpt lat="47.144963214028785" lon="3.165567827299395"><ele>322.0</ele><time>2026-04-19T14:02:51.999Z</time></trkpt><trkpt lat="47.14496148399873" lon="3.1657309471995014"><ele>322.0</ele><time>2026-04-19T14:02:52.999Z</time></trkpt><trkpt lat="47.14496015547888" lon="3.165894552660559"><ele>322.0</ele><time>2026-04-19T14:02:53.999Z</time></trkpt><trkpt lat="47.14496538865796" lon="3.1660565449573888"><ele>322.0</ele><time>2026-04-19T14:02:54.999Z</time></trkpt><trkpt lat="47.1449717769115" lon="3.1662028105078277"><ele>322.0</ele><time>2026-04-19T14:02:55.999Z</time></trkpt><trkpt lat="47.144973187907524" lon="3.1663594585577224"><ele>322.0</ele><time>2026-04-19T14:02:56.999Z</time></trkpt><trkpt lat="47.14497616195318" lon="3.166528140714455"><ele>321.75</ele><time>2026-04-19T14:02:57.999Z</time></trkpt><trkpt lat="47.14498106403634" lon="3.166701871557718"><ele>321.5</ele><time>2026-04-19T14:02:58.999Z</time></trkpt><trkpt lat="47.14498482411781" lon="3.1668828511425544"><ele>321.25</ele><time>2026-04-19T14:02:59.999Z</time></trkpt><trkpt lat="47.14497115827558" lon="3.167068336912959"><ele>321.0</ele><time>2026-04-19T14:03:00.999Z</time></trkpt><trkpt lat="47.1449820655658" lon="3.167274377403011"><ele>320.0</ele><time>2026-04-19T14:03:01.999Z</time></trkpt><trkpt lat="47.14498792748055" lon="3.167463638407238"><ele>319.0</ele><time>2026-04-19T14:03:02.999Z</time></trkpt><trkpt lat="47.14499618123365" lon="3.167661514669298"><ele>318.0</ele><time>2026-04-19T14:03:03.999Z</time></trkpt><trkpt lat="47.14499997346011" lon="3.1678690740167386"><ele>317.0</ele><time>2026-04-19T14:03:04.999Z</time></trkpt><trkpt lat="47.14500313792216" lon="3.168059451719308"><ele>315.5</ele><time>2026-04-19T14:03:05.999Z</time></trkpt><trkpt lat="47.14500507814672" lon="3.1682389957070733"><ele>314.0</ele><time>2026-04-19T14:03:06.999Z</time></trkpt><trkpt lat="47.1449941935481" lon="3.1684331226792866"><ele>312.5</ele><time>2026-04-19T14:03:07.999Z</time></trkpt><trkpt lat="47.14499725149086" lon="3.16862959566423"><ele>311.0</ele><time>2026-04-19T14:03:08.999Z</time></trkpt><trkpt lat="47.14500027967502" lon="3.168824156421557"><ele>311.0</ele><time>2026-04-19T14:03:09.999Z</time></trkpt><trkpt lat="47.1450146397289" lon="3.1690149970670545"><ele>311.0</ele><time>2026-04-19T14:03:10.999Z</time></trkpt><trkpt lat="47.145016063740336" lon="3.1691909504426627"><ele>311.0</ele><time>2026-04-19T14:03:11.999Z</time></trkpt><trkpt lat="47.14501733514815" lon="3.1693615897579086"><ele>311.0</ele><time>2026-04-19T14:03:12.999Z</time></trkpt><trkpt lat="47.14502095926147" lon="3.1695259947055976"><ele>310.6</ele><time>2026-04-19T14:03:13.999Z</time></trkpt><trkpt lat="47.145026152611045" lon="3.1696854400153343"><ele>310.20000000000005</ele><time>2026-04-19T14:03:14.999Z</time></trkpt><trkpt lat="47.145027102003915" lon="3.1698381792610335"><ele>309.79999999999995</ele><time>2026-04-19T14:03:15.999Z</time></trkpt><trkpt lat="47.145029998272705" lon="3.169986419838448"><ele>309.4</ele><time>2026-04-19T14:03:16.999Z</time></trkpt><trkpt lat="47.14503563309867" lon="3.170144909453058"><ele>309.0</ele><time>2026-04-19T14:03:17.999Z</time></trkpt><trkpt lat="47.145023738372785" lon="3.1703086422741484"><ele>308.75</ele><time>2026-04-19T14:03:18.999Z</time></trkpt><trkpt lat="47.14502653332698" lon="3.1704910011535397"><ele>308.5</ele><time>2026-04-19T14:03:19.999Z</time></trkpt><trkpt lat="47.14502905747697" lon="3.170655691273083"><ele>308.25</ele><time>2026-04-19T14:03:20.999Z</time></trkpt><trkpt lat="47.14503160452038" lon="3.170821875195886"><ele>308.0</ele><time>2026-04-19T14:03:21.999Z</time></trkpt><trkpt lat="47.145034500060994" lon="3.170999681956594"><ele>307.4</ele><time>2026-04-19T14:03:22.999Z</time></trkpt><trkpt lat="47.14503726616929" lon="3.171157130163248"><ele>306.8</ele><time>2026-04-19T14:03:23.999Z</time></trkpt><trkpt lat="47.14504003718532" lon="3.171314857657432"><ele>306.2</ele><time>2026-04-19T14:03:24.999Z</time></trkpt><trkpt lat="47.14505339320694" lon="3.1714627282109142"><ele>305.6</ele><time>2026-04-19T14:03:25.999Z</time></trkpt><trkpt lat="47.14504517886396" lon="3.1716075241909882"><ele>305.0</ele><time>2026-04-19T14:03:26.999Z</time></trkpt><trkpt lat="47.14504776330322" lon="3.1717546315047866"><ele>303.75</ele><time>2026-04-19T14:03:27.999Z</time></trkpt><trkpt lat="47.145050768245056" lon="3.1719256739267143"><ele>302.5</ele><time>2026-04-19T14:03:28.999Z</time></trkpt><trkpt lat="47.14505391903249" lon="3.1721234874495545"><ele>301.25</ele><time>2026-04-19T14:03:29.999Z</time></trkpt><trkpt lat="47.1450710276874" lon="3.1723059149640505"><ele>300.0</ele><time>2026-04-19T14:03:30.999Z</time></trkpt><trkpt lat="47.145066755711916" lon="3.172462966423864"><ele>299.4</ele><time>2026-04-19T14:03:31.999Z</time></trkpt><trkpt lat="47.145069924787215" lon="3.1725965137475556"><ele>298.8</ele><time>2026-04-19T14:03:32.999Z</time></trkpt><trkpt lat="47.14506245657621" lon="3.1727490561468015"><ele>298.2</ele><time>2026-04-19T14:03:33.999Z</time></trkpt><trkpt lat="47.14506504817271" lon="3.172898705054512"><ele>297.6</ele><time>2026-04-19T14:03:34.999Z</time></trkpt><trkpt lat="47.145068089092355" lon="3.173066107163761"><ele>297.0</ele><time>2026-04-19T14:03:35.999Z</time></trkpt><trkpt lat="47.145088048376614" lon="3.173260096310262"><ele>296.5</ele><time>2026-04-19T14:03:36.999Z</time></trkpt><trkpt lat="47.14507608807462" lon="3.1734696384080823"><ele>296.0</ele><time>2026-04-19T14:03:37.999Z</time></trkpt><trkpt lat="47.14509219073784" lon="3.1736421014865086"><ele>295.5</ele><time>2026-04-19T14:03:38.999Z</time></trkpt><trkpt lat="47.14509110552291" lon="3.1738049577052343"><ele>295.0</ele><time>2026-04-19T14:03:39.999Z</time></trkpt><trkpt lat="47.14508681631275" lon="3.173967674642786"><ele>294.0</ele><time>2026-04-19T14:03:40.999Z</time></trkpt><trkpt lat="47.14509827879834" lon="3.1741255398921533"><ele>293.0</ele><time>2026-04-19T14:03:41.999Z</time></trkpt><trkpt lat="47.14509081465066" lon="3.174306282272567"><ele>292.0</ele><time>2026-04-19T14:03:42.999Z</time></trkpt><trkpt lat="47.14509324971579" lon="3.174489986755964"><ele>291.0</ele><time>2026-04-19T14:03:43.999Z</time></trkpt><trkpt lat="47.14509547330478" lon="3.174657737270703"><ele>291.0</ele><time>2026-04-19T14:03:44.999Z</time></trkpt><trkpt lat="47.14509747878384" lon="3.174809033224655"><ele>291.0</ele><time>2026-04-19T14:03:45.999Z</time></trkpt><trkpt lat="47.14509943186622" lon="3.1749563761814525"><ele>291.0</ele><time>2026-04-19T14:03:47Z</time></trkpt><trkpt lat="47.145115188073646" lon="3.1750885000346907"><ele>291.0</ele><time>2026-04-19T14:03:48Z</time></trkpt><trkpt lat="47.1451031443733" lon="3.175236921289175"><ele>291.0</ele><time>2026-04-19T14:03:49Z</time></trkpt><trkpt lat="47.14510506687932" lon="3.1753823210635987"><ele>290.5</ele><time>2026-04-19T14:03:50Z</time></trkpt><trkpt lat="47.145120287569846" lon="3.175516086794781"><ele>290.0</ele><time>2026-04-19T14:03:51Z</time></trkpt><trkpt lat="47.145122645194014" lon="3.175620245315976"><ele>289.5</ele><time>2026-04-19T14:03:52Z</time></trkpt><trkpt lat="47.145123767787844" lon="3.1757781389325754"><ele>289.0</ele><time>2026-04-19T14:03:54Z</time></trkpt><trkpt lat="47.145117286098404" lon="3.175924270862557"><ele>288.5</ele><time>2026-04-19T14:03:56Z</time></trkpt><trkpt lat="47.14511643465767" lon="3.17602909909842"><ele>288.0</ele><time>2026-04-19T14:03:58Z</time></trkpt><trkpt lat="47.145124129205975" lon="3.176142297372684"><ele>288.4</ele><time>2026-04-19T14:04:01Z</time></trkpt><trkpt lat="47.14514649357213" lon="3.1762862352889543"><ele>288.8</ele><time>2026-04-19T14:04:03Z</time></trkpt><trkpt lat="47.145159526453476" lon="3.176379096169296"><ele>289.2</ele><time>2026-04-19T14:04:04Z</time></trkpt><trkpt lat="47.145174005590725" lon="3.176482261885054"><ele>289.6</ele><time>2026-04-19T14:04:05Z</time></trkpt><trkpt lat="47.14519890280041" lon="3.1766596576844637"><ele>290.0</ele><time>2026-04-19T14:04:07Z</time></trkpt><trkpt lat="47.145142244393426" lon="3.176782413642609"><ele>290.0</ele><time>2026-04-19T14:04:08Z</time></trkpt><trkpt lat="47.14513917316487" lon="3.176876275426648"><ele>290.0</ele><time>2026-04-19T14:04:09Z</time></trkpt><trkpt lat="47.14512927602797" lon="3.176989151445031"><ele>290.0</ele><time>2026-04-19T14:04:10Z</time></trkpt><trkpt lat="47.14513948025219" lon="3.1771097583893546"><ele>290.0</ele><time>2026-04-19T14:04:11Z</time></trkpt><trkpt lat="47.14512067996714" lon="3.1772428820246557"><ele>290.0</ele><time>2026-04-19T14:04:12Z</time></trkpt><trkpt lat="47.14514657451215" lon="3.1773875204288884"><ele>290.0</ele><time>2026-04-19T14:04:13Z</time></trkpt><trkpt lat="47.145150438831905" lon="3.1775071797126326"><ele>291.6666666666667</ele><time>2026-04-19T14:04:14Z</time></trkpt><trkpt lat="47.14515716286927" lon="3.1776576924572666"><ele>293.33333333333337</ele><time>2026-04-19T14:04:15Z</time></trkpt><trkpt lat="47.14514481246308" lon="3.177768258969241"><ele>295.0</ele><time>2026-04-19T14:04:16Z</time></trkpt><trkpt lat="47.145155889561444" lon="3.1778954545239473"><ele>296.6666666666667</ele><time>2026-04-19T14:04:18Z</time></trkpt><trkpt lat="47.145102402833395" lon="3.1779639737431227"><ele>298.3333333333333</ele><time>2026-04-19T14:04:19Z</time></trkpt><trkpt lat="47.14509829192099" lon="3.1780735161293228"><ele>300.0</ele><time>2026-04-19T14:04:20Z</time></trkpt><trkpt lat="47.145142856011645" lon="3.1782605921677294"><ele>301.2</ele><time>2026-04-19T14:04:21Z</time></trkpt><trkpt lat="47.145143301357635" lon="3.1783873782499343"><ele>302.4</ele><time>2026-04-19T14:04:22Z</time></trkpt><trkpt lat="47.14518255086252" lon="3.17850921855592"><ele>303.6</ele><time>2026-04-19T14:04:23Z</time></trkpt><trkpt lat="47.14516672841071" lon="3.1787043669905555"><ele>304.8</ele><time>2026-04-19T14:04:25Z</time></trkpt><trkpt lat="47.14517755376578" lon="3.1788870015167685"><ele>306.0</ele><time>2026-04-19T14:04:26Z</time></trkpt><trkpt lat="47.14517626197009" lon="3.178987752693148"><ele>306.0</ele><time>2026-04-19T14:04:27Z</time></trkpt><trkpt lat="47.145182334227854" lon="3.179206705035005"><ele>306.0</ele><time>2026-04-19T14:04:29Z</time></trkpt><trkpt lat="47.14518624528384" lon="3.179312130529246"><ele>306.0</ele><time>2026-04-19T14:04:30Z</time></trkpt><trkpt lat="47.14521276612606" lon="3.1794675065318967"><ele>306.0</ele><time>2026-04-19T14:04:31Z</time></trkpt><trkpt lat="47.14521373454413" lon="3.179667629416141"><ele>306.0</ele><time>2026-04-19T14:04:33Z</time></trkpt><trkpt lat="47.14521518953527" lon="3.1797776758450693"><ele>306.0</ele><time>2026-04-19T14:04:34Z</time></trkpt><trkpt lat="47.14521616122942" lon="3.179955025623631"><ele>306.0</ele><time>2026-04-19T14:04:36Z</time></trkpt><trkpt lat="47.14520279331042" lon="3.180073861399867"><ele>306.0</ele><time>2026-04-19T14:04:37Z</time></trkpt><trkpt lat="47.145198390239344" lon="3.1801982540828027"><ele>306.0</ele><time>2026-04-19T14:04:39Z</time></trkpt><trkpt lat="47.14518481351248" lon="3.180374594110489"><ele>305.8</ele><time>2026-04-19T14:04:40.999Z</time></trkpt><trkpt lat="47.14519047809928" lon="3.180492218504585"><ele>305.6</ele><time>2026-04-19T14:04:41.999Z</time></trkpt><trkpt lat="47.14521406862036" lon="3.1806616643915877"><ele>305.4</ele><time>2026-04-19T14:04:42.999Z</time></trkpt><trkpt lat="47.14521781510076" lon="3.1807883557885215"><ele>305.2</ele><time>2026-04-19T14:04:43.999Z</time></trkpt><trkpt lat="47.14520790038784" lon="3.1809847985868354"><ele>305.0</ele><time>2026-04-19T14:04:45.999Z</time></trkpt><trkpt lat="47.14520589285246" lon="3.181092421549496"><ele>304.6</ele><time>2026-04-19T14:04:46.999Z</time></trkpt><trkpt lat="47.14521464939211" lon="3.1812177490257922"><ele>304.2</ele><time>2026-04-19T14:04:47.999Z</time></trkpt><trkpt lat="47.14519818154138" lon="3.181439556237449"><ele>303.8</ele><time>2026-04-19T14:04:49.999Z</time></trkpt><trkpt lat="47.14519936796388" lon="3.181562186735345"><ele>303.4</ele><time>2026-04-19T14:04:50.999Z</time></trkpt><trkpt lat="47.145236153483246" lon="3.181665958675688"><ele>303.0</ele><time>2026-04-19T14:04:51.999Z</time></trkpt><trkpt lat="47.145225138816684" lon="3.181891422074905"><ele>303.0</ele><time>2026-04-19T14:04:53.999Z</time></trkpt><trkpt lat="47.14522934013846" lon="3.1820157823641355"><ele>303.0</ele><time>2026-04-19T14:04:54.999Z</time></trkpt><trkpt lat="47.14523137893523" lon="3.182115271064721"><ele>303.0</ele><time>2026-04-19T14:04:55.999Z</time></trkpt><trkpt lat="47.145232457630634" lon="3.1822318998450267"><ele>303.0</ele><time>2026-04-19T14:04:56.999Z</time></trkpt><trkpt lat="47.14523001840423" lon="3.182373810398063"><ele>303.0</ele><time>2026-04-19T14:04:57.999Z</time></trkpt><trkpt lat="47.1452395208556" lon="3.1825094908954994"><ele>303.0</ele><time>2026-04-19T14:04:58.999Z</time></trkpt><trkpt lat="47.14524082246944" lon="3.18264898404336"><ele>302.6666666666667</ele><time>2026-04-19T14:04:59.999Z</time></trkpt><trkpt lat="47.14525329593611" lon="3.182771621392978"><ele>302.3333333333333</ele><time>2026-04-19T14:05:00.999Z</time></trkpt><trkpt lat="47.145236704867315" lon="3.1828738683870186"><ele>302.0</ele><time>2026-04-19T14:05:01.999Z</time></trkpt><trkpt lat="47.14525436695811" lon="3.183001476789832"><ele>301.66666666666663</ele><time>2026-04-19T14:05:02.999Z</time></trkpt><trkpt lat="47.145264644228874" lon="3.183122709253104"><ele>301.3333333333333</ele><time>2026-04-19T14:05:03.999Z</time></trkpt><trkpt lat="47.145264701981226" lon="3.1832474828479516"><ele>301.0</ele><time>2026-04-19T14:05:04.999Z</time></trkpt><trkpt lat="47.14525773871002" lon="3.1833781761823023"><ele>300.3333333333333</ele><time>2026-04-19T14:05:05.999Z</time></trkpt><trkpt lat="47.14525684356016" lon="3.1835152544151937"><ele>299.66666666666663</ele><time>2026-04-19T14:05:06.999Z</time></trkpt><trkpt lat="47.14525883446992" lon="3.1836597847141666"><ele>299.0</ele><time>2026-04-19T14:05:07.999Z</time></trkpt><trkpt lat="47.145274088490055" lon="3.183782736208705"><ele>298.3333333333333</ele><time>2026-04-19T14:05:08.999Z</time></trkpt><trkpt lat="47.1452647169387" lon="3.183883707691827"><ele>297.6666666666667</ele><time>2026-04-19T14:05:09.999Z</time></trkpt><trkpt lat="47.145270428435886" lon="3.184006134711212"><ele>297.0</ele><time>2026-04-19T14:05:10.999Z</time></trkpt><trkpt lat="47.145273241294404" lon="3.1841386591077963"><ele>296.1666666666667</ele><time>2026-04-19T14:05:11.999Z</time></trkpt><trkpt lat="47.14528098081006" lon="3.184275332033045"><ele>295.3333333333333</ele><time>2026-04-19T14:05:12.999Z</time></trkpt><trkpt lat="47.14528938167178" lon="3.1844066837433562"><ele>294.5</ele><time>2026-04-19T14:05:13.999Z</time></trkpt><trkpt lat="47.14528809665139" lon="3.1845393737404097"><ele>293.66666666666663</ele><time>2026-04-19T14:05:14.999Z</time></trkpt><trkpt lat="47.145281982704304" lon="3.1846697893173643"><ele>292.8333333333333</ele><time>2026-04-19T14:05:15.999Z</time></trkpt><trkpt lat="47.14527477931967" lon="3.184785791564162"><ele>292.0</ele><time>2026-04-19T14:05:16.999Z</time></trkpt><trkpt lat="47.145267073154024" lon="3.184908253422417"><ele>291.1428571428571</ele><time>2026-04-19T14:05:17.999Z</time></trkpt><trkpt lat="47.14527473874009" lon="3.1850189527643367"><ele>290.2857142857143</ele><time>2026-04-19T14:05:18.999Z</time></trkpt><trkpt lat="47.14528487362328" lon="3.1851257802038506"><ele>289.42857142857144</ele><time>2026-04-19T14:05:19.999Z</time></trkpt><trkpt lat="47.14527761001582" lon="3.185218951487922"><ele>288.57142857142856</ele><time>2026-04-19T14:05:20.999Z</time></trkpt><trkpt lat="47.14529008160412" lon="3.1853378968127943"><ele>287.7142857142857</ele><time>2026-04-19T14:05:21.999Z</time></trkpt><trkpt lat="47.14530557131233" lon="3.1854571325086423"><ele>286.85714285714283</ele><time>2026-04-19T14:05:22.999Z</time></trkpt><trkpt lat="47.145299449300865" lon="3.1855601748998184"><ele>286.0</ele><time>2026-04-19T14:05:23.999Z</time></trkpt><trkpt lat="47.145293078692696" lon="3.1856851547140472"><ele>284.40000000000003</ele><time>2026-04-19T14:05:24.999Z</time></trkpt><trkpt lat="47.145287012988526" lon="3.185836931024706"><ele>282.8</ele><time>2026-04-19T14:05:25.999Z</time></trkpt><trkpt lat="47.14529491634176" lon="3.1859670112274756"><ele>281.20000000000005</ele><time>2026-04-19T14:05:26.999Z</time></trkpt><trkpt lat="47.14530481105273" lon="3.1860782139612494"><ele>279.6</ele><time>2026-04-19T14:05:27.999Z</time></trkpt><trkpt lat="47.14531262490717" lon="3.1862197214420385"><ele>278.0</ele><time>2026-04-19T14:05:28.999Z</time></trkpt><trkpt lat="47.14530934077949" lon="3.186350957167475"><ele>278.0</ele><time>2026-04-19T14:05:29.999Z</time></trkpt><trkpt lat="47.14530648377235" lon="3.186464163672355"><ele>278.0</ele><time>2026-04-19T14:05:30.999Z</time></trkpt><trkpt lat="47.145280063503215" lon="3.186555835139273"><ele>278.0</ele><time>2026-04-19T14:05:31.999Z</time></trkpt><trkpt lat="47.145279085673785" lon="3.186653928380498"><ele>278.0</ele><time>2026-04-19T14:05:32.999Z</time></trkpt><trkpt lat="47.145289985653534" lon="3.186792866703431"><ele>278.0</ele><time>2026-04-19T14:05:33.999Z</time></trkpt><trkpt lat="47.145297864838085" lon="3.1869297746031395"><ele>278.0</ele><time>2026-04-19T14:05:34.999Z</time></trkpt><trkpt lat="47.14530672743324" lon="3.187051107827401"><ele>276.85714285714283</ele><time>2026-04-19T14:05:35.999Z</time></trkpt><trkpt lat="47.145325314015025" lon="3.187159071796313"><ele>275.7142857142857</ele><time>2026-04-19T14:05:36.999Z</time></trkpt><trkpt lat="47.145322488819524" lon="3.1872812505281725"><ele>274.57142857142856</ele><time>2026-04-19T14:05:37.999Z</time></trkpt><trkpt lat="47.14532939734326" lon="3.1873734386005625"><ele>273.42857142857144</ele><time>2026-04-19T14:05:38.999Z</time></trkpt><trkpt lat="47.14532381909681" lon="3.187476732588294"><ele>272.2857142857143</ele><time>2026-04-19T14:05:39.999Z</time></trkpt><trkpt lat="47.145318259159374" lon="3.1875776305841597"><ele>271.1428571428571</ele><time>2026-04-19T14:05:40.999Z</time></trkpt><trkpt lat="47.14532228871889" lon="3.1876867574540197"><ele>270.0</ele><time>2026-04-19T14:05:41.999Z</time></trkpt><trkpt lat="47.14532946116076" lon="3.187799687556645"><ele>268.8</ele><time>2026-04-19T14:05:42.999Z</time></trkpt><trkpt lat="47.14529632816848" lon="3.1879576006198267"><ele>267.6</ele><time>2026-04-19T14:05:44.999Z</time></trkpt><trkpt lat="47.145296870806206" lon="3.188130924416628"><ele>266.4</ele><time>2026-04-19T14:05:46.999Z</time></trkpt><trkpt lat="47.14526413581904" lon="3.1882321397263924"><ele>265.2</ele><time>2026-04-19T14:05:47.999Z</time></trkpt><trkpt lat="47.14522350003148" lon="3.1883118331566958"><ele>264.0</ele><time>2026-04-19T14:05:48.999Z</time></trkpt><trkpt lat="47.1451788861267" lon="3.1884400354481754"><ele>263.25</ele><time>2026-04-19T14:05:49.999Z</time></trkpt><trkpt lat="47.14509557932489" lon="3.1886017096271484"><ele>262.5</ele><time>2026-04-19T14:05:50.999Z</time></trkpt><trkpt lat="47.145015172543445" lon="3.1887849982397083"><ele>261.75</ele><time>2026-04-19T14:05:51.999Z</time></trkpt><trkpt lat="47.144966029646675" lon="3.18892850010245"><ele>261.0</ele><time>2026-04-19T14:05:53Z</time></trkpt><trkpt lat="47.14493351764002" lon="3.189055026825834"><ele>260.1666666666667</ele><time>2026-04-19T14:05:54Z</time></trkpt><trkpt lat="47.14488451009047" lon="3.189193354915452"><ele>259.3333333333333</ele><time>2026-04-19T14:05:55Z</time></trkpt><trkpt lat="47.144846204759645" lon="3.1893191964628533"><ele>258.5</ele><time>2026-04-19T14:05:56Z</time></trkpt><trkpt lat="47.14480151932282" lon="3.1893930468549367"><ele>257.66666666666663</ele><time>2026-04-19T14:05:57Z</time></trkpt><trkpt lat="47.144778278545814" lon="3.189516704003748"><ele>256.8333333333333</ele><time>2026-04-19T14:05:58Z</time></trkpt><trkpt lat="47.144740269815784" lon="3.189625114724096"><ele>256.0</ele><time>2026-04-19T14:05:59Z</time></trkpt><trkpt lat="47.14470409398434" lon="3.189725295502727"><ele>255.4</ele><time>2026-04-19T14:06:00Z</time></trkpt><trkpt lat="47.144669819083106" lon="3.1898180138889205"><ele>254.8</ele><time>2026-04-19T14:06:01Z</time></trkpt><trkpt lat="47.144636909341685" lon="3.1899014427210712"><ele>254.20000000000002</ele><time>2026-04-19T14:06:02Z</time></trkpt><trkpt lat="47.144585716444105" lon="3.1900377812374723"><ele>253.60000000000002</ele><time>2026-04-19T14:06:04Z</time></trkpt><trkpt lat="47.144490554289995" lon="3.190179880346772"><ele>253.0</ele><time>2026-04-19T14:06:06Z</time></trkpt><trkpt lat="47.144464976268466" lon="3.190359673167771"><ele>251.0</ele><time>2026-04-19T14:06:07Z</time></trkpt><trkpt lat="47.14441323750929" lon="3.1905028529227946"><ele>249.0</ele><time>2026-04-19T14:06:08Z</time></trkpt><trkpt lat="47.14437270757196" lon="3.1906983930754844"><ele>247.0</ele><time>2026-04-19T14:06:09Z</time></trkpt><trkpt lat="47.14434431706494" lon="3.1908598649524027"><ele>245.0</ele><time>2026-04-19T14:06:10Z</time></trkpt><trkpt lat="47.14431454226452" lon="3.1909911058826115"><ele>244.4</ele><time>2026-04-19T14:06:11Z</time></trkpt><trkpt lat="47.14429433591844" lon="3.1911191315507965"><ele>243.8</ele><time>2026-04-19T14:06:12Z</time></trkpt><trkpt lat="47.144283789783294" lon="3.191225245196209"><ele>243.2</ele><time>2026-04-19T14:06:13Z</time></trkpt><trkpt lat="47.14425222601594" lon="3.1913382594639694"><ele>242.6</ele><time>2026-04-19T14:06:14Z</time></trkpt><trkpt lat="47.14421779540708" lon="3.1914694887533734"><ele>242.0</ele><time>2026-04-19T14:06:15Z</time></trkpt><trkpt lat="47.14414885733557" lon="3.191619551141545"><ele>241.39999999999998</ele><time>2026-04-19T14:06:16Z</time></trkpt><trkpt lat="47.1441030553272" lon="3.1917639785803584"><ele>240.79999999999998</ele><time>2026-04-19T14:06:17Z</time></trkpt><trkpt lat="47.144057639419174" lon="3.1918776210212676"><ele>240.2</ele><time>2026-04-19T14:06:18Z</time></trkpt><trkpt lat="47.14402545336972" lon="3.1919934840622415"><ele>239.6</ele><time>2026-04-19T14:06:19Z</time></trkpt><trkpt lat="47.14395763567272" lon="3.1921750193365828"><ele>239.0</ele><time>2026-04-19T14:06:21Z</time></trkpt><trkpt lat="47.143909135203685" lon="3.192300777736072"><ele>238.0</ele><time>2026-04-19T14:06:24Z</time></trkpt><trkpt lat="47.14390702485774" lon="3.1924096931408315"><ele>236.99999999999997</ele><time>2026-04-19T14:06:25Z</time></trkpt><trkpt lat="47.143907951609165" lon="3.1925199654369023"><ele>235.99999999999997</ele><time>2026-04-19T14:06:26Z</time></trkpt><trkpt lat="47.143910618583654" lon="3.192652430437443"><ele>235.0</ele><time>2026-04-19T14:06:27Z</time></trkpt><trkpt lat="47.14392928311038" lon="3.19281849436555"><ele>234.0</ele><time>2026-04-19T14:06:28Z</time></trkpt><trkpt lat="47.14395069206983" lon="3.193003502348111"><ele>234.0</ele><time>2026-04-19T14:06:29Z</time></trkpt><trkpt lat="47.143977594815674" lon="3.1931468200577093"><ele>234.0</ele><time>2026-04-19T14:06:30Z</time></trkpt><trkpt lat="47.14400213271703" lon="3.193274559064805"><ele>234.0</ele><time>2026-04-19T14:06:31Z</time></trkpt><trkpt lat="47.14401575567827" lon="3.1933872179748044"><ele>234.0</ele><time>2026-04-19T14:06:32Z</time></trkpt><trkpt lat="47.14403079953329" lon="3.193499688785573"><ele>234.0</ele><time>2026-04-19T14:06:34Z</time></trkpt><trkpt lat="47.14401494418716" lon="3.1936036803481618"><ele>234.0</ele><time>2026-04-19T14:06:37Z</time></trkpt><trkpt lat="47.143974435956345" lon="3.1936808237390264"><ele>233.39999999999998</ele><time>2026-04-19T14:06:38Z</time></trkpt><trkpt lat="47.14389928119995" lon="3.193752059302516"><ele>232.79999999999998</ele><time>2026-04-19T14:06:39Z</time></trkpt><trkpt lat="47.143806872900605" lon="3.193834917518645"><ele>232.20000000000002</ele><time>2026-04-19T14:06:40Z</time></trkpt><trkpt lat="47.14370967394054" lon="3.1939392717618067"><ele>231.60000000000002</ele><time>2026-04-19T14:06:41Z</time></trkpt><trkpt lat="47.14361405939589" lon="3.194069718810496"><ele>231.0</ele><time>2026-04-19T14:06:42Z</time></trkpt><trkpt lat="47.14352907520232" lon="3.194229606193826"><ele>230.33333333333331</ele><time>2026-04-19T14:06:43Z</time></trkpt><trkpt lat="47.143464042292244" lon="3.1944200685684"><ele>229.66666666666666</ele><time>2026-04-19T14:06:44Z</time></trkpt><trkpt lat="47.143420713293466" lon="3.1946366837417814"><ele>229.0</ele><time>2026-04-19T14:06:44.999Z</time></trkpt><trkpt lat="47.14338187344465" lon="3.1948539654597177"><ele>229.0</ele><time>2026-04-19T14:06:45.999Z</time></trkpt><trkpt lat="47.14333664013226" lon="3.195075622617289"><ele>229.0</ele><time>2026-04-19T14:06:46.999Z</time></trkpt><trkpt lat="47.14328663169958" lon="3.1953009302461592"><ele>229.0</ele><time>2026-04-19T14:06:47.999Z</time></trkpt><trkpt lat="47.14323471782673" lon="3.19553579073297"><ele>228.66666666666666</ele><time>2026-04-19T14:06:48.999Z</time></trkpt><trkpt lat="47.14318605025703" lon="3.195763858075027"><ele>228.33333333333331</ele><time>2026-04-19T14:06:49.999Z</time></trkpt><trkpt lat="47.14313410135604" lon="3.19599538126814"><ele>228.0</ele><time>2026-04-19T14:06:50.999Z</time></trkpt><trkpt lat="47.1430802412103" lon="3.1962153574806735"><ele>228.0</ele><time>2026-04-19T14:06:51.999Z</time></trkpt><trkpt lat="47.143032871314375" lon="3.1964119054616282"><ele>228.0</ele><time>2026-04-19T14:06:52.999Z</time></trkpt><trkpt lat="47.14298258374641" lon="3.196595042313971"><ele>228.0</ele><time>2026-04-19T14:06:53.999Z</time></trkpt><trkpt lat="47.142934779797464" lon="3.196753802235081"><ele>228.0</ele><time>2026-04-19T14:06:54.999Z</time></trkpt><trkpt lat="47.1428854921292" lon="3.1969197133786023"><ele>227.25</ele><time>2026-04-19T14:06:55.999Z</time></trkpt><trkpt lat="47.14283487296715" lon="3.1970967382036064"><ele>226.5</ele><time>2026-04-19T14:06:56.999Z</time></trkpt><trkpt lat="47.14278288353998" lon="3.1972870200278005"><ele>225.75</ele><time>2026-04-19T14:06:57.999Z</time></trkpt><trkpt lat="47.14273052806659" lon="3.197464604089751"><ele>225.0</ele><time>2026-04-19T14:06:58.999Z</time></trkpt><trkpt lat="47.14268280881345" lon="3.1976238555270085"><ele>225.0</ele><time>2026-04-19T14:06:59.999Z</time></trkpt><trkpt lat="47.142640261433854" lon="3.197769477320122"><ele>225.0</ele><time>2026-04-19T14:07:00.999Z</time></trkpt><trkpt lat="47.14260135663695" lon="3.1979062886215326"><ele>225.0</ele><time>2026-04-19T14:07:01.999Z</time></trkpt><trkpt lat="47.142560983845506" lon="3.1980254905007293"><ele>225.0</ele><time>2026-04-19T14:07:02.999Z</time></trkpt><trkpt lat="47.14252532376956" lon="3.1981284518552537"><ele>225.0</ele><time>2026-04-19T14:07:03.999Z</time></trkpt><trkpt lat="47.14250293685279" lon="3.1982156717748467"><ele>225.0</ele><time>2026-04-19T14:07:04.999Z</time></trkpt><trkpt lat="47.14245197136526" lon="3.1983545063833496"><ele>225.0</ele><time>2026-04-19T14:07:06.999Z</time></trkpt><trkpt lat="47.14258450722581" lon="3.198556054106621"><ele>225.0</ele><time>2026-04-19T14:07:08.999Z</time></trkpt><trkpt lat="47.14263060731089" lon="3.1986641032319167"><ele>225.0</ele><time>2026-04-19T14:07:09.999Z</time></trkpt><trkpt lat="47.14266779482003" lon="3.198778827688347"><ele>225.0</ele><time>2026-04-19T14:07:10.999Z</time></trkpt><trkpt lat="47.14269085773219" lon="3.1989050084493473"><ele>224.5</ele><time>2026-04-19T14:07:11.999Z</time></trkpt><trkpt lat="47.14271323292991" lon="3.199019164188665"><ele>224.0</ele><time>2026-04-19T14:07:12.999Z</time></trkpt><trkpt lat="47.14273277847153" lon="3.1991270079385092"><ele>223.5</ele><time>2026-04-19T14:07:13.999Z</time></trkpt><trkpt lat="47.1427491109849" lon="3.199238716317195"><ele>223.0</ele><time>2026-04-19T14:07:14.999Z</time></trkpt><trkpt lat="47.14276545617556" lon="3.199359291629718"><ele>222.5</ele><time>2026-04-19T14:07:15.999Z</time></trkpt><trkpt lat="47.14278146397004" lon="3.19946441386627"><ele>222.0</ele><time>2026-04-19T14:07:16.999Z</time></trkpt><trkpt lat="47.14280051844518" lon="3.1995548313569535"><ele>222.0</ele><time>2026-04-19T14:07:17.999Z</time></trkpt><trkpt lat="47.142816426829135" lon="3.1996496434273105"><ele>222.0</ele><time>2026-04-19T14:07:18.999Z</time></trkpt><trkpt lat="47.142834487752495" lon="3.1997469896608384"><ele>222.0</ele><time>2026-04-19T14:07:19.999Z</time></trkpt><trkpt lat="47.14285781229664" lon="3.19984288154029"><ele>222.0</ele><time>2026-04-19T14:07:20.999Z</time></trkpt><trkpt lat="47.14288185972485" lon="3.1999316453718025"><ele>222.0</ele><time>2026-04-19T14:07:21.999Z</time></trkpt><trkpt lat="47.14291528121879" lon="3.2000235511418413"><ele>222.0</ele><time>2026-04-19T14:07:22.999Z</time></trkpt><trkpt lat="47.14295885419707" lon="3.200113590438831"><ele>222.0</ele><time>2026-04-19T14:07:23.999Z</time></trkpt><trkpt lat="47.14301278063382" lon="3.2001875281639354"><ele>222.0</ele><time>2026-04-19T14:07:24.999Z</time></trkpt><trkpt lat="47.1430750653707" lon="3.200256230391749"><ele>222.0</ele><time>2026-04-19T14:07:25.999Z</time></trkpt><trkpt lat="47.14313511333759" lon="3.200333426392791"><ele>222.0</ele><time>2026-04-19T14:07:26.999Z</time></trkpt><trkpt lat="47.143192220681314" lon="3.20041913493763"><ele>222.0</ele><time>2026-04-19T14:07:27.999Z</time></trkpt><trkpt lat="47.14324691948497" lon="3.200503920188428"><ele>222.0</ele><time>2026-04-19T14:07:28.999Z</time></trkpt><trkpt lat="47.14330305178202" lon="3.20059416175662"><ele>222.0</ele><time>2026-04-19T14:07:29.999Z</time></trkpt><trkpt lat="47.14336504784418" lon="3.200687031031764"><ele>222.0</ele><time>2026-04-19T14:07:30.999Z</time></trkpt><trkpt lat="47.14343221483848" lon="3.200796649316606"><ele>222.0</ele><time>2026-04-19T14:07:31.999Z</time></trkpt><trkpt lat="47.143490853904865" lon="3.200915176187835"><ele>222.0</ele><time>2026-04-19T14:07:32.999Z</time></trkpt><trkpt lat="47.143557200064436" lon="3.201048066865473"><ele>222.0</ele><time>2026-04-19T14:07:33.999Z</time></trkpt><trkpt lat="47.143623360752414" lon="3.201193946783965"><ele>222.0</ele><time>2026-04-19T14:07:34.999Z</time></trkpt><trkpt lat="47.143697083803154" lon="3.2013455032241973"><ele>222.0</ele><time>2026-04-19T14:07:35.999Z</time></trkpt><trkpt lat="47.14375489503044" lon="3.201483929591661"><ele>222.0</ele><time>2026-04-19T14:07:36.999Z</time></trkpt><trkpt lat="47.143803853278946" lon="3.2016186025256252"><ele>222.0</ele><time>2026-04-19T14:07:37.999Z</time></trkpt><trkpt lat="47.14383648094508" lon="3.201770525489301"><ele>222.0</ele><time>2026-04-19T14:07:38.999Z</time></trkpt><trkpt lat="47.14386141396582" lon="3.201944841366067"><ele>222.0</ele><time>2026-04-19T14:07:39.999Z</time></trkpt><trkpt lat="47.14389195686872" lon="3.202119900102388"><ele>221.39999999999998</ele><time>2026-04-19T14:07:40.999Z</time></trkpt><trkpt lat="47.14391977641181" lon="3.2022580928850943"><ele>220.79999999999998</ele><time>2026-04-19T14:07:41.999Z</time></trkpt><trkpt lat="47.14395557247009" lon="3.202388058047108"><ele>220.2</ele><time>2026-04-19T14:07:42.999Z</time></trkpt><trkpt lat="47.14400462257272" lon="3.202518941714793"><ele>219.6</ele><time>2026-04-19T14:07:43.999Z</time></trkpt><trkpt lat="47.14406068901485" lon="3.2026378107626465"><ele>219.0</ele><time>2026-04-19T14:07:44.999Z</time></trkpt><trkpt lat="47.14411603558582" lon="3.202757315228487"><ele>218.0</ele><time>2026-04-19T14:07:45.999Z</time></trkpt><trkpt lat="47.144173915334086" lon="3.2028740112501124"><ele>217.0</ele><time>2026-04-19T14:07:46.999Z</time></trkpt><trkpt lat="47.144231669221305" lon="3.202985185789879"><ele>216.0</ele><time>2026-04-19T14:07:47.999Z</time></trkpt><trkpt lat="47.144276120529106" lon="3.20310140589583"><ele>215.0</ele><time>2026-04-19T14:07:48.999Z</time></trkpt><trkpt lat="47.14430952197741" lon="3.2032134989098937"><ele>214.0</ele><time>2026-04-19T14:07:49.999Z</time></trkpt><trkpt lat="47.14432822233733" lon="3.2033190094968935"><ele>213.0</ele><time>2026-04-19T14:07:50.999Z</time></trkpt><trkpt lat="47.14433835430562" lon="3.2034166250205502"><ele>208.0</ele><time>2026-04-19T14:07:51.999Z</time></trkpt><trkpt lat="47.14434716629677" lon="3.203543475576091"><ele>208.0</ele><time>2026-04-19T14:07:53.999Z</time></trkpt></trkseg></trk></gpx>